createdAt,value
2023-01-17T00:02:36.105Z,99782.13
2023-01-17T00:07:56.725Z,99771.66
2023-01-17T00:13:03.767Z,99755.50
2023-01-17T00:18:06.259Z,99779.56
2023-01-17T00:23:32.697Z,99779.31
2023-01-17T00:28:40.091Z,99777.00
2023-01-17T00:33:42.413Z,99766.22
2023-01-17T00:38:44.411Z,99742.41
2023-01-17T00:44:04.993Z,99753.53
2023-01-17T00:49:26.360Z,99753.06
2023-01-17T00:54:46.950Z,99758.03
2023-01-17T01:00:07.767Z,99738.97
2023-01-17T01:05:29.638Z,99723.81
2023-01-17T01:10:51.334Z,99708.25
2023-01-17T01:16:12.168Z,99675.41
2023-01-17T01:21:32.917Z,99712.22
2023-01-17T01:26:53.538Z,99717.34
2023-01-17T01:32:13.849Z,99707.75
2023-01-17T01:37:15.965Z,99693.59
2023-01-17T01:42:18.360Z,99691.44
2023-01-17T01:47:29.346Z,99694.50
2023-01-17T01:52:33.989Z,99683.75
2023-01-17T01:57:42.705Z,99695.63
2023-01-17T02:02:47.887Z,99673.19
2023-01-17T02:08:17.624Z,99706.94
2023-01-17T02:13:21.507Z,99707.84
2023-01-17T02:19:00.434Z,99721.47
2023-01-17T02:24:40.061Z,99694.59
2023-01-17T02:30:11.208Z,99691.75
2023-01-17T02:35:16.550Z,99732.66
2023-01-17T02:40:26.931Z,99731.09
2023-01-17T02:45:29.530Z,99684.50
2023-01-17T02:50:56.058Z,99683.81
2023-01-17T02:56:08.704Z,99709.53
2023-01-17T03:01:38.437Z,99696.94
2023-01-17T03:06:47.555Z,99651.56
2023-01-17T03:11:49.899Z,99681.03
2023-01-17T03:16:52.307Z,99674.16
2023-01-17T03:21:54.417Z,99661.59
2023-01-17T03:26:56.644Z,99666.47
2023-01-17T03:31:58.842Z,99669.75
2023-01-17T03:37:00.916Z,99671.50
2023-01-17T03:42:02.967Z,99669.38
2023-01-17T03:47:05.072Z,99700.16
2023-01-17T03:52:07.938Z,99685.41
2023-01-17T03:57:10.148Z,99691.13
2023-01-17T04:02:12.355Z,99690.81
2023-01-17T04:07:14.574Z,99685.31
2023-01-17T04:12:16.740Z,99676.09
2023-01-17T04:17:20.530Z,99627.16
2023-01-17T04:22:22.798Z,99680.13
2023-01-17T04:27:24.935Z,99664.94
2023-01-17T04:32:27.019Z,99674.13
2023-01-17T04:37:29.068Z,99640.66
2023-01-17T04:42:31.217Z,99667.97
2023-01-17T04:47:36.191Z,99677.75
2023-01-17T04:52:38.400Z,99670.88
2023-01-17T04:57:40.455Z,99679.22
2023-01-17T05:02:42.593Z,99671.28
2023-01-17T05:07:44.822Z,99699.88
2023-01-17T05:12:54.463Z,99697.31
2023-01-17T05:17:56.759Z,99685.53
2023-01-17T05:22:59.113Z,99713.88
2023-01-17T05:28:01.808Z,99686.84
2023-01-17T05:33:04.060Z,99658.41
2023-01-17T05:38:06.245Z,99711.34
2023-01-17T05:43:09.005Z,99718.41
2023-01-17T05:48:11.157Z,99716.25
2023-01-17T05:53:16.293Z,99719.09
2023-01-17T05:58:21.567Z,99712.53
2023-01-17T06:03:23.712Z,99694.09
2023-01-17T06:08:25.807Z,99694.72
2023-01-17T06:13:27.902Z,99726.25
2023-01-17T06:18:31.233Z,99735.03
2023-01-17T06:23:33.547Z,99733.25
2023-01-17T06:28:36.023Z,99763.03
2023-01-17T06:33:38.279Z,99757.03
2023-01-17T06:38:40.343Z,99767.34
2023-01-17T06:43:42.461Z,99752.44
2023-01-17T06:48:44.718Z,99741.13
2023-01-17T06:53:48.603Z,99766.56
2023-01-17T06:58:51.906Z,99747.69
2023-01-17T07:03:54.683Z,99735.53
2023-01-17T07:08:57.062Z,99742.81
2023-01-17T07:13:59.168Z,99732.44
2023-01-17T07:19:01.256Z,99765.72
2023-01-17T07:24:03.577Z,99780.00
2023-01-17T07:29:06.110Z,99778.16
2023-01-17T07:34:08.529Z,99754.13
2023-01-17T07:39:10.740Z,99753.09
2023-01-17T07:44:13.673Z,99766.88
2023-01-17T07:49:15.827Z,99781.97
2023-01-17T07:54:17.891Z,99801.25
2023-01-17T07:59:20.116Z,99767.38
2023-01-17T08:04:25.639Z,99802.94
2023-01-17T08:09:28.063Z,99773.06
2023-01-17T08:14:30.576Z,99801.66
2023-01-17T08:19:32.753Z,99799.41
2023-01-17T08:24:35.264Z,99798.41
2023-01-17T08:29:37.544Z,99767.59
2023-01-17T08:34:39.659Z,99763.28
2023-01-17T08:39:41.763Z,99760.38
2023-01-17T08:44:44.425Z,99751.69
2023-01-17T08:49:46.684Z,99772.31
2023-01-17T08:54:48.807Z,99787.97
2023-01-17T08:59:50.927Z,99776.97
2023-01-17T09:04:53.960Z,99783.75
2023-01-17T09:09:56.098Z,99790.63
2023-01-17T09:14:58.286Z,99775.53
2023-01-17T09:20:00.559Z,99753.94
2023-01-17T09:25:02.672Z,99786.63
2023-01-17T09:30:05.589Z,99787.09
2023-01-17T09:35:09.130Z,99756.22
2023-01-17T09:40:23.218Z,99747.59
2023-01-17T09:45:28.051Z,99732.28
2023-01-17T09:50:33.204Z,99744.22
2023-01-17T09:55:40.876Z,99741.25
2023-01-17T10:00:51.563Z,99741.97
2023-01-17T10:06:11.681Z,99735.44
2023-01-17T10:11:39.181Z,99739.69
2023-01-17T10:16:50.208Z,99739.97
2023-01-17T10:22:02.662Z,99686.28
2023-01-17T10:27:26.383Z,99672.78
2023-01-17T10:32:32.988Z,99696.00
2023-01-17T10:37:44.400Z,99699.59
2023-01-17T10:42:54.495Z,99688.91
2023-01-17T10:48:35.121Z,99667.72
2023-01-17T10:53:57.350Z,99684.44
2023-01-17T10:59:38.489Z,99688.91
2023-01-17T11:04:45.339Z,99641.88
2023-01-17T11:09:53.666Z,99701.31
2023-01-17T11:20:43.549Z,99682.88
2023-01-17T11:25:58.201Z,99674.63
2023-01-17T11:31:24.289Z,99618.22
2023-01-17T11:36:30.367Z,99652.25
2023-01-17T11:41:35.247Z,99654.94
2023-01-17T11:46:38.478Z,99636.94
2023-01-17T11:51:43.611Z,99599.81
2023-01-17T11:56:46.724Z,99615.16
2023-01-17T12:02:16.559Z,99611.13
2023-01-17T12:07:46.525Z,99607.00
2023-01-17T12:13:19.159Z,99595.50
2023-01-17T12:18:37.256Z,99565.75
2023-01-17T12:24:02.610Z,99593.81
2023-01-17T12:29:07.625Z,99606.78
2023-01-17T12:34:24.886Z,99607.50
2023-01-17T12:39:36.548Z,99602.53
2023-01-17T12:45:06.163Z,99592.19
2023-01-17T12:50:38.683Z,99578.97
2023-01-17T12:55:46.710Z,99579.00
2023-01-17T13:00:58.098Z,99560.69
2023-01-17T13:06:03.157Z,99550.00
2023-01-17T13:11:18.498Z,99571.50
2023-01-17T13:16:30.705Z,99566.13
2023-01-17T13:21:35.690Z,99544.97
2023-01-17T13:26:50.007Z,99555.78
2023-01-17T13:32:15.216Z,99575.50
2023-01-17T13:37:19.868Z,99571.59
2023-01-17T13:42:45.213Z,99572.81
2023-01-17T13:47:47.447Z,99553.28
2023-01-17T13:52:49.585Z,99573.50
2023-01-17T13:57:51.713Z,99536.75
2023-01-17T14:02:55.622Z,99562.38
2023-01-17T14:08:12.759Z,99578.41
2023-01-17T14:13:37.809Z,99568.81
2023-01-17T14:18:43.389Z,99569.44
2023-01-17T14:23:50.155Z,99544.75
2023-01-17T14:28:53.140Z,99550.44
2023-01-17T14:33:55.299Z,99530.00
2023-01-17T14:38:57.535Z,99557.66
2023-01-17T14:44:01.341Z,99547.44
2023-01-17T14:49:06.590Z,99549.28
2023-01-17T14:54:22.790Z,99535.69
2023-01-17T14:59:25.111Z,99542.09
2023-01-17T15:04:40.034Z,99534.31
2023-01-17T15:09:45.017Z,99530.13
2023-01-17T15:14:47.233Z,99495.66
2023-01-17T15:19:54.284Z,99533.13
2023-01-17T15:24:57.622Z,99499.22
2023-01-17T15:30:02.735Z,99518.47
2023-01-17T15:35:08.318Z,99516.00
2023-01-17T15:40:20.624Z,99519.63
2023-01-17T15:45:33.230Z,99514.81
2023-01-17T15:50:36.864Z,99488.31
2023-01-17T15:55:40.405Z,99548.16
2023-01-17T16:00:44.548Z,99557.53
2023-01-17T16:05:47.419Z,99542.63
2023-01-17T16:10:55.468Z,99537.94
2023-01-17T16:16:32.814Z,99526.56
2023-01-17T16:21:35.089Z,99513.63
2023-01-17T16:26:37.293Z,99536.72
2023-01-17T16:31:39.564Z,99477.88
2023-01-17T16:36:41.883Z,99534.81
2023-01-17T16:41:44.859Z,99523.25
2023-01-17T16:46:47.435Z,99554.13
2023-01-17T16:51:50.366Z,99549.94
2023-01-17T16:56:53.031Z,99537.38
2023-01-17T17:01:55.242Z,99528.63
2023-01-17T17:06:57.351Z,99524.44
2023-01-17T17:11:59.464Z,99541.53
2023-01-17T17:17:01.790Z,99572.50
2023-01-17T17:22:06.875Z,99523.16
2023-01-17T17:27:09.133Z,99564.16
2023-01-17T17:32:11.917Z,99551.16
2023-01-17T17:37:16.341Z,99557.16
2023-01-17T17:42:20.406Z,99555.78
2023-01-17T17:47:24.304Z,99496.00
2023-01-17T17:52:26.474Z,99549.00
2023-01-17T17:57:28.612Z,99544.31
2023-01-17T18:02:31.840Z,99516.03
2023-01-17T18:07:34.530Z,99535.16
2023-01-17T18:12:36.674Z,99523.47
2023-01-17T18:17:38.910Z,99526.88
2023-01-17T18:22:42.264Z,99531.22
2023-01-17T18:27:45.299Z,99496.63
2023-01-17T18:32:50.240Z,99529.50
2023-01-17T18:37:52.589Z,99502.63
2023-01-17T18:42:55.129Z,99521.97
2023-01-17T18:47:57.815Z,99495.81
2023-01-17T18:53:00.206Z,99512.56
2023-01-17T18:58:02.695Z,99518.84
2023-01-17T19:03:06.847Z,99516.09
2023-01-17T19:08:10.329Z,99532.84
2023-01-17T19:13:12.950Z,99545.03
2023-01-17T19:18:15.024Z,99543.59
2023-01-17T19:23:17.611Z,99551.38
2023-01-17T19:28:19.815Z,99540.41
2023-01-17T19:33:22.134Z,99528.00
2023-01-17T19:38:24.235Z,99536.63
2023-01-17T19:43:26.400Z,99534.13
2023-01-17T19:48:28.961Z,99489.13
2023-01-17T19:53:31.066Z,99501.66
2023-01-17T19:58:34.024Z,99506.47
2023-01-17T20:03:38.059Z,99504.81
2023-01-17T20:08:40.928Z,99519.56
2023-01-17T20:13:43.071Z,99503.19
2023-01-17T20:18:45.982Z,99519.41
2023-01-17T20:23:50.365Z,99497.78
2023-01-17T20:28:53.591Z,99518.81
2023-01-17T20:33:56.659Z,99527.69
2023-01-17T20:38:59.423Z,99519.22
2023-01-17T20:44:02.802Z,99495.69
2023-01-17T20:49:07.965Z,99518.81
2023-01-17T20:54:14.817Z,99543.69
2023-01-17T20:59:19.905Z,99539.19
2023-01-17T21:04:26.180Z,99521.16
2023-01-17T21:09:28.521Z,99514.59
2023-01-17T21:14:30.857Z,99552.47
2023-01-17T21:19:32.953Z,99558.19
2023-01-17T21:24:35.050Z,99557.59
2023-01-17T21:29:37.191Z,99555.56
2023-01-17T21:34:39.275Z,99548.91
2023-01-17T21:39:41.452Z,99563.75
2023-01-17T21:44:45.632Z,99529.63
2023-01-17T21:49:48.412Z,99570.09
2023-01-17T21:55:09.070Z,99543.78
2023-01-17T22:00:16.953Z,99562.34
2023-01-17T22:05:19.153Z,99571.63
2023-01-17T22:10:21.391Z,99545.22
2023-01-17T22:15:23.831Z,99555.88
2023-01-17T22:20:26.092Z,99536.06
2023-01-17T22:25:28.451Z,99537.47
2023-01-17T22:30:30.697Z,99519.84
2023-01-17T22:35:32.977Z,99508.47
2023-01-17T22:40:38.596Z,99528.19
2023-01-17T22:45:40.861Z,99496.84
2023-01-17T22:50:43.356Z,99517.59
2023-01-17T22:55:45.527Z,99497.00
2023-01-17T23:00:47.688Z,99494.75
2023-01-17T23:05:49.771Z,99504.34
2023-01-17T23:11:10.289Z,99503.97
2023-01-17T23:16:30.922Z,99483.31
2023-01-17T23:21:52.887Z,99492.75
2023-01-17T23:27:13.355Z,99497.13
2023-01-17T23:32:15.479Z,99494.31
2023-01-17T23:37:17.667Z,99467.09
2023-01-17T23:42:38.375Z,99484.84
2023-01-17T23:47:40.483Z,99486.84
2023-01-17T23:52:42.548Z,99472.34
2023-01-17T23:57:45.042Z,99514.72
